Time;durP1;ratioP1;P1;durP2;ratioP2;P2;SDS_P1;SDS_P2;PMS_P1;PMS_P2;Temp;Humidity;BMP_temperature;BMP_pressure;BME280_temperature;BME280_humidity;BME280_pressure;Samples;Min_cycle;Max_cycle;Signal;HPM_P1;HPM_P2
2021/12/03 00:01:57;;;;;;;22.48;7.43;;;1.10;99.90;;;;;;4952105;29;20047;-58
2021/12/03 00:04:23;;;;;;;16.75;6.82;;;1.10;99.90;;;;;;4954041;29;20509;-59
2021/12/03 00:06:49;;;;;;;15.30;6.80;;;1.00;99.90;;;;;;4952151;29;20117;-59
2021/12/03 00:09:15;;;;;;;16.80;6.63;;;1.00;99.90;;;;;;4954609;29;20051;-58
2021/12/03 00:11:40;;;;;;;16.17;6.70;;;1.00;99.90;;;;;;4953647;29;20031;-60
2021/12/03 00:14:07;;;;;;;17.02;6.15;;;1.00;99.90;;;;;;4953801;29;20466;-58
2021/12/03 00:16:32;;;;;;;14.20;6.35;;;1.00;99.90;;;;;;4954222;29;20197;-59
2021/12/03 00:18:58;;;;;;;13.10;6.30;;;1.00;99.90;;;;;;4952275;29;20110;-59
2021/12/03 00:21:26;;;;;;;16.40;6.20;;;1.00;99.90;;;;;;4953537;29;20593;-58
2021/12/03 00:23:52;;;;;;;15.82;6.90;;;1.10;99.90;;;;;;4952221;28;20638;-58
2021/12/03 00:26:18;;;;;;;14.65;6.40;;;1.00;99.90;;;;;;4953731;28;20112;-58
2021/12/03 00:28:44;;;;;;;15.02;7.13;;;1.00;99.90;;;;;;4953339;29;20066;-59
2021/12/03 00:31:10;;;;;;;16.83;6.95;;;1.00;99.90;;;;;;4952567;29;20074;-58
2021/12/03 00:33:37;;;;;;;14.57;6.57;;;1.00;99.90;;;;;;4952369;29;20031;-58
2021/12/03 00:36:06;;;;;;;16.55;6.70;;;1.00;99.90;;;;;;4953148;29;20081;-58
2021/12/03 00:38:36;;;;;;;15.05;6.63;;;0.90;99.90;;;;;;4953455;29;20034;-58
2021/12/03 00:41:05;;;;;;;14.98;6.72;;;1.00;99.90;;;;;;4952812;29;20032;-59
2021/12/03 00:43:31;;;;;;;16.23;5.88;;;1.00;99.90;;;;;;4953442;29;20055;-58
2021/12/03 00:46:04;;;;;;;14.35;5.78;;;1.00;99.90;;;;;;4952941;29;20122;-58
2021/12/03 00:48:30;;;;;;;17.15;6.32;;;1.00;99.90;;;;;;4953046;29;20023;-58
2021/12/03 00:50:56;;;;;;;13.55;5.57;;;1.00;99.90;;;;;;4952658;29;20098;-58
2021/12/03 00:53:21;;;;;;;14.70;6.03;;;1.00;99.90;;;;;;4953184;29;20559;-58
2021/12/03 00:55:47;;;;;;;11.90;5.50;;;1.00;99.90;;;;;;4951951;29;20074;-58
2021/12/03 00:58:13;;;;;;;14.60;5.90;;;1.00;99.90;;;;;;4952797;29;20114;-59
2021/12/03 01:00:38;;;;;;;13.98;5.72;;;1.10;99.90;;;;;;4953477;29;20405;-59
2021/12/03 01:03:04;;;;;;;15.77;6.47;;;1.10;99.90;;;;;;4949503;28;20043;-58
2021/12/03 01:05:33;;;;;;;18.80;6.13;;;1.10;99.90;;;;;;4936068;29;20380;-58
2021/12/03 01:08:00;;;;;;;17.80;6.47;;;1.10;99.90;;;;;;4951527;29;20138;-58
2021/12/03 01:10:26;;;;;;;15.40;5.70;;;1.10;99.90;;;;;;4952774;29;20551;-58
2021/12/03 01:12:54;;;;;;;13.52;5.78;;;1.00;99.90;;;;;;4950420;29;20038;-58
2021/12/03 01:15:32;;;;;;;20.83;7.97;;;1.00;99.90;;;;;;4953315;29;20090;-58
2021/12/03 01:17:58;;;;;;;17.55;7.50;;;1.10;99.90;;;;;;4951956;29;20114;-58
2021/12/03 01:20:24;;;;;;;19.25;7.03;;;1.00;99.90;;;;;;4952968;29;20440;-58
2021/12/03 01:22:52;;;;;;;20.05;8.18;;;1.00;99.90;;;;;;4951444;29;20031;-58
2021/12/03 01:25:20;;;;;;;19.30;7.30;;;1.00;99.90;;;;;;4951936;29;20101;-58
2021/12/03 01:27:48;;;;;;;17.27;7.38;;;1.00;99.90;;;;;;4952331;29;20146;-59
2021/12/03 01:30:17;;;;;;;16.90;7.32;;;1.00;99.90;;;;;;4952213;29;20066;-58
2021/12/03 01:32:44;;;;;;;19.65;8.38;;;1.00;99.90;;;;;;4949107;29;20046;-59
2021/12/03 01:35:12;;;;;;;17.75;7.05;;;1.00;99.90;;;;;;4951857;29;20035;-58
2021/12/03 01:37:38;;;;;;;19.67;7.93;;;1.10;99.90;;;;;;4952626;29;20027;-59
2021/12/03 01:40:07;;;;;;;17.60;7.40;;;1.00;99.90;;;;;;4951172;29;20073;-58
2021/12/03 01:42:33;;;;;;;14.73;6.07;;;1.00;99.90;;;;;;4952101;29;20055;-58
2021/12/03 01:44:59;;;;;;;17.98;7.47;;;1.00;99.90;;;;;;4951793;29;20090;-58
2021/12/03 01:47:25;;;;;;;16.25;6.07;;;1.10;99.90;;;;;;4952020;29;20586;-58
2021/12/03 01:49:51;;;;;;;18.52;6.15;;;1.00;99.90;;;;;;4951090;29;20039;-58
2021/12/03 01:52:17;;;;;;;13.45;5.78;;;1.00;99.90;;;;;;4951330;29;20744;-59
2021/12/03 01:54:42;;;;;;;15.43;5.78;;;1.00;99.90;;;;;;4950401;29;20046;-59
2021/12/03 01:57:08;;;;;;;18.67;6.32;;;1.00;99.90;;;;;;4951619;29;20484;-59
2021/12/03 01:59:34;;;;;;;18.38;6.72;;;0.90;99.90;;;;;;4951964;29;20035;-58
2021/12/03 02:02:00;;;;;;;16.10;6.57;;;0.90;99.90;;;;;;4950904;29;20091;-58
2021/12/03 02:04:26;;;;;;;13.23;6.20;;;0.90;99.90;;;;;;4952021;29;20035;-58
2021/12/03 02:06:52;;;;;;;16.75;6.10;;;0.90;99.90;;;;;;4951019;29;20031;-58
2021/12/03 02:09:17;;;;;;;16.52;6.97;;;0.90;99.90;;;;;;4952381;29;20039;-58
2021/12/03 02:11:43;;;;;;;16.23;5.88;;;0.90;99.90;;;;;;4951951;29;20031;-59
2021/12/03 02:14:09;;;;;;;18.30;6.78;;;0.90;99.90;;;;;;4951025;29;20039;-58
2021/12/03 02:16:35;;;;;;;18.92;7.10;;;0.90;99.90;;;;;;4950365;28;20676;-58
2021/12/03 02:19:01;;;;;;;17.60;7.20;;;0.90;99.90;;;;;;4951187;29;20035;-59
2021/12/03 02:21:27;;;;;;;20.25;7.90;;;0.90;99.90;;;;;;4950771;28;20042;-58
2021/12/03 02:23:53;;;;;;;17.05;6.85;;;0.90;99.90;;;;;;4949855;29;20134;-58
2021/12/03 02:26:19;;;;;;;17.08;7.65;;;0.90;99.90;;;;;;4950924;29;20083;-58
2021/12/03 02:28:47;;;;;;;19.45;7.82;;;0.90;99.90;;;;;;4951697;29;20130;-60
2021/12/03 02:31:15;;;;;;;18.27;7.47;;;0.90;99.90;;;;;;4951600;29;20032;-58
2021/12/03 02:33:42;;;;;;;17.60;7.43;;;0.90;99.90;;;;;;4950966;29;20031;-58
2021/12/03 02:36:08;;;;;;;16.88;6.55;;;0.90;99.90;;;;;;4949774;29;20115;-59
2021/12/03 02:38:34;;;;;;;19.20;7.13;;;0.80;99.90;;;;;;4952025;29;20035;-58
2021/12/03 02:41:00;;;;;;;16.48;7.13;;;0.90;99.90;;;;;;4949876;29;20031;-58
2021/12/03 02:43:27;;;;;;;16.30;7.28;;;0.80;99.90;;;;;;4951642;29;20087;-58
2021/12/03 02:45:53;;;;;;;17.80;7.78;;;0.80;99.90;;;;;;4951351;29;20087;-59
2021/12/03 02:48:20;;;;;;;16.48;6.78;;;0.90;99.90;;;;;;4950497;29;20484;-58
2021/12/03 02:50:46;;;;;;;21.65;8.60;;;0.80;99.90;;;;;;4951556;29;20110;-59
2021/12/03 02:53:13;;;;;;;21.20;8.57;;;0.80;99.90;;;;;;4950785;29;20031;-59
2021/12/03 02:55:39;;;;;;;20.88;8.38;;;0.80;99.90;;;;;;4951752;29;20384;-58
2021/12/03 02:58:05;;;;;;;19.60;7.97;;;0.80;99.90;;;;;;4950392;29;20123;-59
2021/12/03 03:00:33;;;;;;;21.30;8.10;;;0.80;99.90;;;;;;4950046;29;20406;-59
2021/12/03 03:02:58;;;;;;;22.80;8.43;;;0.70;99.90;;;;;;4950023;29;20031;-59
2021/12/03 03:05:26;;;;;;;24.88;8.55;;;0.80;99.90;;;;;;4950522;29;20066;-58
2021/12/03 03:07:53;;;;;;;27.40;8.80;;;0.80;99.90;;;;;;4949338;29;20706;-59
2021/12/03 03:10:25;;;;;;;21.75;8.40;;;0.80;99.90;;;;;;4950795;29;20031;-59
2021/12/03 03:12:51;;;;;;;21.58;8.15;;;0.80;99.90;;;;;;4950634;29;20043;-59
2021/12/03 03:15:17;;;;;;;23.30;8.43;;;0.80;99.90;;;;;;4950463;29;20371;-59
2021/12/03 03:17:44;;;;;;;19.88;8.43;;;0.80;99.90;;;;;;4951114;29;20038;-58
2021/12/03 03:20:11;;;;;;;22.33;8.15;;;0.80;99.90;;;;;;4950274;29;20027;-59
2021/12/03 03:22:38;;;;;;;20.42;8.15;;;0.70;99.90;;;;;;4950872;29;20054;-58
2021/12/03 03:25:06;;;;;;;20.48;8.85;;;0.80;99.90;;;;;;4949923;29;20055;-59
2021/12/03 03:27:31;;;;;;;26.08;8.80;;;0.70;99.90;;;;;;4949917;29;20039;-58
2021/12/03 03:29:58;;;;;;;27.30;9.07;;;0.70;99.90;;;;;;4950138;29;20468;-58
2021/12/03 03:32:24;;;;;;;27.52;9.13;;;0.70;99.90;;;;;;4950012;29;20114;-59
2021/12/03 03:34:50;;;;;;;24.98;8.88;;;0.70;99.90;;;;;;4950215;29;20070;-59
2021/12/03 03:37:16;;;;;;;23.20;8.75;;;0.70;99.90;;;;;;4950989;29;20086;-58
2021/12/03 03:39:44;;;;;;;21.83;9.27;;;0.70;99.90;;;;;;4950344;29;20042;-59
2021/12/03 03:42:10;;;;;;;24.63;9.27;;;0.70;99.90;;;;;;4949009;29;20112;-59
2021/12/03 03:44:36;;;;;;;22.10;9.23;;;0.70;99.90;;;;;;4950745;29;20476;-58
2021/12/03 03:47:04;;;;;;;24.98;9.10;;;0.70;99.90;;;;;;4949696;29;20518;-58
2021/12/03 03:49:30;;;;;;;21.10;9.13;;;0.70;99.90;;;;;;4949913;29;20042;-58
2021/12/03 03:51:57;;;;;;;20.10;8.00;;;0.70;99.90;;;;;;4949640;29;20034;-58
2021/12/03 03:54:23;;;;;;;22.05;8.50;;;0.70;99.90;;;;;;4950491;29;20059;-58
2021/12/03 03:56:49;;;;;;;22.60;8.82;;;0.70;99.90;;;;;;4949843;29;20097;-59
2021/12/03 03:59:17;;;;;;;18.95;8.30;;;0.70;99.90;;;;;;4949286;29;20035;-58
2021/12/03 04:01:48;;;;;;;21.15;8.52;;;0.70;99.90;;;;;;4950201;29;20083;-59
2021/12/03 04:04:15;;;;;;;24.50;9.23;;;0.70;99.90;;;;;;4949552;29;20961;-58
2021/12/03 04:06:41;;;;;;;24.85;8.68;;;0.70;99.90;;;;;;4950087;29;20035;-58
2021/12/03 04:09:08;;;;;;;25.38;8.82;;;0.70;99.90;;;;;;4947239;29;20476;-59
2021/12/03 04:11:34;;;;;;;24.65;9.43;;;0.70;99.90;;;;;;4946117;28;20159;-59
2021/12/03 04:14:00;;;;;;;21.83;9.00;;;0.70;99.90;;;;;;4957793;28;20392;-58
2021/12/03 04:16:26;;;;;;;24.73;9.32;;;0.60;99.90;;;;;;4953866;28;20032;-58
2021/12/03 04:18:53;;;;;;;28.50;10.32;;;0.60;99.90;;;;;;4948633;29;20448;-59
2021/12/03 04:21:18;;;;;;;24.58;9.40;;;0.60;99.90;;;;;;4949684;29;20023;-58
2021/12/03 04:23:44;;;;;;;24.75;9.60;;;0.70;99.90;;;;;;4958570;28;20086;-58
2021/12/03 04:26:10;;;;;;;24.25;9.57;;;0.70;99.90;;;;;;4951407;28;20054;-59
2021/12/03 04:28:36;;;;;;;22.70;9.43;;;0.70;99.90;;;;;;4934330;29;20090;-58
2021/12/03 04:31:02;;;;;;;20.27;8.27;;;0.70;99.90;;;;;;4949336;29;20041;-58
2021/12/03 04:33:28;;;;;;;18.48;8.68;;;0.60;99.90;;;;;;4950752;29;20130;-59
2021/12/03 04:35:54;;;;;;;20.73;8.30;;;0.60;99.90;;;;;;4948842;29;20130;-60
2021/12/03 04:38:20;;;;;;;24.33;9.90;;;0.70;99.90;;;;;;4950646;28;20519;-58
2021/12/03 04:40:46;;;;;;;19.10;7.95;;;0.70;99.90;;;;;;4953505;29;20034;-59
2021/12/03 04:43:11;;;;;;;20.08;7.78;;;0.70;99.90;;;;;;4954111;28;20038;-58
2021/12/03 04:45:37;;;;;;;17.75;7.40;;;0.70;99.90;;;;;;4954527;28;20057;-59
2021/12/03 04:48:04;;;;;;;20.63;7.97;;;0.70;99.90;;;;;;4952953;28;20090;-59
2021/12/03 04:50:33;;;;;;;20.00;8.00;;;0.70;99.90;;;;;;4954982;28;20476;-59
2021/12/03 04:52:59;;;;;;;21.20;7.93;;;0.60;99.90;;;;;;4951925;28;20090;-59
2021/12/03 04:55:26;;;;;;;23.10;9.13;;;0.60;99.90;;;;;;4948925;28;20027;-58
2021/12/03 04:57:53;;;;;;;20.48;8.23;;;0.60;99.90;;;;;;4956312;28;20138;-58
2021/12/03 05:00:31;;;;;;;19.05;7.75;;;0.60;99.90;;;;;;4952519;29;20110;-58
2021/12/03 05:02:58;;;;;;;17.65;7.40;;;0.60;99.90;;;;;;4952493;28;20041;-59
2021/12/03 05:05:25;;;;;;;20.27;8.25;;;0.60;99.90;;;;;;4963208;28;20026;-58
2021/12/03 05:07:57;;;;;;;22.08;7.90;;;0.70;99.90;;;;;;4955082;28;20027;-58
2021/12/03 05:10:25;;;;;;;23.70;8.40;;;0.60;99.90;;;;;;4952881;29;20527;-58
2021/12/03 05:12:51;;;;;;;18.40;7.80;;;0.60;99.90;;;;;;4953452;29;20031;-58
2021/12/03 05:15:16;;;;;;;22.10;8.60;;;0.60;99.90;;;;;;4952343;29;20027;-58
2021/12/03 05:17:42;;;;;;;24.60;9.25;;;0.60;99.90;;;;;;4953311;29;20095;-58
2021/12/03 05:20:08;;;;;;;25.90;8.85;;;0.60;99.90;;;;;;4950380;29;20042;-58
2021/12/03 05:22:34;;;;;;;20.58;8.80;;;0.50;99.90;;;;;;4952974;29;20526;-57
2021/12/03 05:25:00;;;;;;;27.40;9.90;;;0.60;99.90;;;;;;4951421;29;20048;-58
2021/12/03 05:27:25;;;;;;;23.27;10.07;;;0.60;99.90;;;;;;4953087;29;20039;-58
2021/12/03 05:29:52;;;;;;;26.45;10.00;;;0.60;99.90;;;;;;4952507;29;20582;-58
2021/12/03 05:32:18;;;;;;;22.42;8.77;;;0.50;99.90;;;;;;4950569;29;20059;-58
2021/12/03 05:34:44;;;;;;;23.15;9.43;;;0.50;99.90;;;;;;4951204;29;20098;-59
2021/12/03 05:37:11;;;;;;;21.30;9.07;;;0.50;99.90;;;;;;4952059;29;20039;-59
2021/12/03 05:39:37;;;;;;;20.02;7.85;;;0.50;99.90;;;;;;4951720;29;20019;-58
2021/12/03 05:42:04;;;;;;;24.27;8.10;;;0.50;99.90;;;;;;4950967;29;20035;-57
2021/12/03 05:44:30;;;;;;;22.00;8.30;;;0.50;99.90;;;;;;4952980;29;20188;-57
2021/12/03 05:46:59;;;;;;;21.33;8.70;;;0.50;99.90;;;;;;4952419;29;20030;-58
2021/12/03 05:49:25;;;;;;;18.00;7.32;;;0.40;99.90;;;;;;4950186;28;20031;-58
2021/12/03 05:51:51;;;;;;;23.02;7.75;;;0.30;99.90;;;;;;4952049;29;20114;-58
2021/12/03 05:54:18;;;;;;;18.58;7.38;;;0.30;99.90;;;;;;4950955;29;20031;-59
2021/12/03 05:56:44;;;;;;;24.45;7.88;;;0.30;99.90;;;;;;4951692;29;20039;-58
2021/12/03 05:59:09;;;;;;;21.60;8.68;;;0.20;99.90;;;;;;4950888;29;20456;-58
2021/12/03 06:01:35;;;;;;;30.60;9.95;;;0.20;99.90;;;;;;4951525;29;20443;-58
2021/12/03 06:04:01;;;;;;;26.02;9.88;;;0.30;99.90;;;;;;4951865;29;20043;-59
2021/12/03 06:06:27;;;;;;;23.85;9.50;;;0.30;99.90;;;;;;4950887;29;20412;-58
2021/12/03 06:08:53;;;;;;;25.65;10.20;;;0.30;99.90;;;;;;4952315;29;20031;-58
2021/12/03 06:11:18;;;;;;;30.55;9.65;;;0.30;99.90;;;;;;4950851;29;20027;-59
2021/12/03 06:13:44;;;;;;;28.23;9.95;;;0.30;99.90;;;;;;4952155;29;20046;-58
2021/12/03 06:16:11;;;;;;;23.75;9.15;;;0.30;99.90;;;;;;4951614;29;20412;-58
2021/12/03 06:18:38;;;;;;;27.95;10.93;;;0.30;99.90;;;;;;4952042;29;20044;-58
2021/12/03 06:21:05;;;;;;;24.65;9.63;;;0.20;99.90;;;;;;4951357;29;20039;-59
2021/12/03 06:23:31;;;;;;;29.40;9.48;;;0.20;99.90;;;;;;4951905;29;20039;-59
2021/12/03 06:25:58;;;;;;;22.60;9.30;;;0.20;99.90;;;;;;4951298;29;20055;-59
2021/12/03 06:28:26;;;;;;;27.73;10.35;;;0.20;99.90;;;;;;4950657;29;20118;-59
2021/12/03 06:30:52;;;;;;;24.05;9.55;;;0.20;99.90;;;;;;4951294;29;20035;-59
2021/12/03 06:33:19;;;;;;;28.27;8.85;;;0.10;99.90;;;;;;4950997;29;20034;-59
2021/12/03 06:35:46;;;;;;;22.48;8.00;;;0.10;99.90;;;;;;4951675;29;20027;-59
2021/12/03 06:38:11;;;;;;;19.60;7.60;;;0.10;99.90;;;;;;4950738;29;20602;-58
2021/12/03 06:40:37;;;;;;;23.23;7.63;;;0.00;99.90;;;;;;4951950;29;20059;-59
2021/12/03 06:43:03;;;;;;;22.00;8.23;;;0.00;99.90;;;;;;4950840;29;20483;-59
2021/12/03 06:45:29;;;;;;;26.23;9.40;;;0.10;99.90;;;;;;4950683;29;20483;-59
2021/12/03 06:47:54;;;;;;;25.83;10.05;;;0.10;99.90;;;;;;4951935;29;20039;-59
2021/12/03 06:50:23;;;;;;;26.50;10.35;;;0.10;99.90;;;;;;4950574;29;20039;-58
2021/12/03 06:55:59;;;;;;;24.02;9.00;;;0.10;99.90;;;;;;4949688;29;20078;-58
2021/12/03 06:58:24;;;;;;;25.40;10.27;;;0.10;99.90;;;;;;4950061;29;20046;-58
2021/12/03 07:00:54;;;;;;;26.27;9.77;;;0.20;99.90;;;;;;4949241;28;20027;-58
2021/12/03 07:03:21;;;;;;;26.23;10.00;;;0.10;99.90;;;;;;4950788;29;20031;-58
2021/12/03 07:05:46;;;;;;;24.98;9.90;;;0.10;99.90;;;;;;4951600;29;20049;-58
2021/12/03 07:08:12;;;;;;;26.92;9.50;;;0.10;99.90;;;;;;4949163;29;20035;-58
2021/12/03 07:10:38;;;;;;;20.38;8.32;;;0.10;99.90;;;;;;4950453;29;20035;-58
2021/12/03 07:13:04;;;;;;;25.70;9.43;;;0.00;99.90;;;;;;4950336;29;20042;-59
2021/12/03 07:15:30;;;;;;;31.23;10.82;;;0.00;99.90;;;;;;4942635;29;20035;-59
2021/12/03 07:17:56;;;;;;;29.98;10.32;;;0.00;99.90;;;;;;4950852;29;20110;-59
2021/12/03 07:20:23;;;;;;;25.63;10.38;;;0.00;99.90;;;;;;4950429;29;20118;-59
2021/12/03 07:22:50;;;;;;;25.70;10.30;;;0.00;99.90;;;;;;4950000;29;20039;-58
2021/12/03 07:25:16;;;;;;;27.90;10.25;;;0.00;99.90;;;;;;4950389;29;20499;-58
2021/12/03 07:27:42;;;;;;;30.13;11.18;;;0.00;99.90;;;;;;4950367;29;20130;-58
2021/12/03 07:30:10;;;;;;;31.60;10.90;;;0.00;99.90;;;;;;4947787;29;20039;-59
2021/12/03 07:32:36;;;;;;;29.20;10.93;;;0.10;99.90;;;;;;4951301;29;20034;-59
2021/12/03 07:35:03;;;;;;;27.85;10.65;;;0.10;99.90;;;;;;4950856;29;20040;-58
2021/12/03 07:37:29;;;;;;;29.50;11.20;;;0.10;99.90;;;;;;4949315;29;20054;-58
2021/12/03 07:39:56;;;;;;;28.30;10.05;;;0.10;99.90;;;;;;4933649;29;20070;-58
2021/12/03 07:42:22;;;;;;;29.42;12.23;;;0.10;99.90;;;;;;4949051;29;20888;-58
2021/12/03 07:44:48;;;;;;;33.60;12.50;;;0.00;99.90;;;;;;4947031;29;20036;-59
2021/12/03 07:47:13;;;;;;;36.03;11.60;;;0.10;99.90;;;;;;4949782;29;20035;-59
2021/12/03 07:49:40;;;;;;;31.52;11.43;;;0.10;99.90;;;;;;4950907;29;20027;-59
2021/12/03 07:52:09;;;;;;;34.97;12.13;;;0.10;99.90;;;;;;4941615;29;20114;-59
2021/12/03 07:54:35;;;;;;;29.98;11.68;;;0.20;99.90;;;;;;4950157;29;20042;-59
2021/12/03 07:57:00;;;;;;;26.48;11.27;;;0.20;99.90;;;;;;4950059;29;20625;-59
2021/12/03 07:59:26;;;;;;;32.67;11.27;;;0.20;99.90;;;;;;4949715;29;20034;-59
2021/12/03 08:01:52;;;;;;;33.00;11.90;;;0.10;99.90;;;;;;4950759;29;20818;-58
2021/12/03 08:04:18;;;;;;;38.88;11.80;;;0.20;99.90;;;;;;4949820;29;20035;-59
2021/12/03 08:06:45;;;;;;;27.25;11.57;;;0.20;99.90;;;;;;4950477;29;20073;-58
2021/12/03 08:09:11;;;;;;;28.75;10.98;;;0.10;99.90;;;;;;4949322;29;20142;-59
2021/12/03 08:11:38;;;;;;;29.33;11.48;;;0.10;99.90;;;;;;4953355;28;20110;-59
2021/12/03 08:14:04;;;;;;;29.83;11.73;;;0.10;99.90;;;;;;4950511;28;20043;-59
2021/12/03 08:16:30;;;;;;;28.30;11.63;;;0.10;99.90;;;;;;4953352;29;20035;-58
2021/12/03 08:18:56;;;;;;;31.63;11.57;;;0.10;99.90;;;;;;4954186;29;20487;-59
2021/12/03 08:21:21;;;;;;;31.85;10.98;;;0.10;99.90;;;;;;4952202;29;20527;-59
2021/12/03 08:23:48;;;;;;;31.63;11.27;;;0.10;99.90;;;;;;4951387;29;20466;-59
2021/12/03 08:26:15;;;;;;;29.70;11.27;;;0.10;99.90;;;;;;4951850;29;20039;-59
2021/12/03 08:28:41;;;;;;;31.85;10.35;;;0.10;99.90;;;;;;4953735;29;20093;-59
2021/12/03 08:31:11;;;;;;;32.78;10.82;;;0.10;99.90;;;;;;4952094;29;20126;-59
2021/12/03 08:33:38;;;;;;;27.80;11.05;;;0.20;99.90;;;;;;4952688;29;20039;-59
2021/12/03 08:36:03;;;;;;;27.42;10.68;;;0.10;99.90;;;;;;4953829;29;20031;-59
2021/12/03 08:38:29;;;;;;;27.05;11.05;;;0.20;99.90;;;;;;4952941;29;20417;-59
2021/12/03 08:40:55;;;;;;;38.10;12.77;;;0.20;99.90;;;;;;4953540;29;20039;-58
2021/12/03 08:43:21;;;;;;;28.90;10.68;;;0.10;99.90;;;;;;4951559;29;20031;-60
2021/12/03 08:45:52;;;;;;;34.17;12.02;;;0.00;99.90;;;;;;4952506;29;20191;-58
2021/12/03 08:48:18;;;;;;;31.58;11.68;;;0.00;99.90;;;;;;4952039;29;20554;-59
2021/12/03 08:51:03;;;;;;;35.25;12.13;;;0.00;99.90;;;;;;4953597;29;20027;-58
2021/12/03 08:55:55;;;;;;;33.67;12.50;;;0.10;99.90;;;;;;4952764;29;20391;-58
2021/12/03 08:58:20;;;;;;;30.08;10.85;;;0.30;99.90;;;;;;4935302;29;20031;-58
2021/12/03 09:00:46;;;;;;;32.35;11.50;;;0.50;99.90;;;;;;4953345;29;20031;-59
2021/12/03 09:03:12;;;;;;;34.70;12.75;;;0.60;99.90;;;;;;4951701;29;20038;-59
2021/12/03 09:05:39;;;;;;;33.85;11.68;;;0.70;99.90;;;;;;4952066;29;20038;-59
2021/12/03 09:08:05;;;;;;;37.55;12.55;;;0.70;99.90;;;;;;4952330;29;20376;-59
2021/12/03 09:10:31;;;;;;;35.20;12.23;;;0.70;99.90;;;;;;4952419;29;20094;-60
2021/12/03 09:12:57;;;;;;;31.52;11.82;;;0.70;99.90;;;;;;4951878;29;20109;-59
2021/12/03 09:15:31;;;;;;;29.90;11.85;;;0.70;99.90;;;;;;4951405;29;20051;-59
2021/12/03 09:26:05;;;;;;;26.98;9.95;;;0.40;99.90;;;;;;4951298;28;20055;-60
2021/12/03 09:28:32;;;;;;;30.33;11.00;;;0.40;99.90;;;;;;4949370;29;20035;-60
2021/12/03 09:30:57;;;;;;;30.45;10.52;;;0.40;99.90;;;;;;4950572;29;20121;-59
2021/12/03 09:33:27;;;;;;;26.65;9.65;;;0.30;99.90;;;;;;4951636;29;20118;-60
2021/12/03 09:35:56;;;;;;;31.05;10.88;;;0.30;99.90;;;;;;4951934;29;20031;-58
2021/12/03 09:38:24;;;;;;;26.52;10.13;;;0.30;99.90;;;;;;4949712;29;20052;-60
2021/12/03 09:40:50;;;;;;;27.08;10.32;;;0.40;99.90;;;;;;4951458;29;20114;-59
2021/12/03 09:43:16;;;;;;;27.38;10.32;;;0.40;99.90;;;;;;4951509;29;20146;-60
2021/12/03 09:45:52;;;;;;;27.02;10.38;;;0.50;99.90;;;;;;4951298;29;20097;-59
2021/12/03 09:48:30;;;;;;;24.35;9.80;;;0.60;99.90;;;;;;4942942;29;20048;-60
2021/12/03 09:50:56;;;;;;;28.25;10.57;;;0.60;99.90;;;;;;4952509;29;20027;-59
2021/12/03 09:53:37;;;;;;;30.58;10.82;;;0.70;99.90;;;;;;4951453;29;20089;-59
2021/12/03 09:56:04;;;;;;;26.92;10.50;;;0.90;99.90;;;;;;4951232;29;20174;-60
2021/12/03 09:58:58;;;;;;;26.63;10.00;;;1.10;99.90;;;;;;4951231;29;20114;-59
2021/12/03 10:15:42;;;;;;;16.00;6.80;;;1.60;99.90;;;;;;4949202;29;20031;-60
2021/12/03 10:33:49;;;;;;;16.30;4.97;;;1.50;99.90;;;;;;4950723;29;20035;-60
2021/12/03 10:39:09;;;;;;;11.50;4.95;;;1.50;99.90;;;;;;4949577;29;20050;-59
2021/12/03 10:44:21;;;;;;;12.27;4.43;;;1.60;99.90;;;;;;4950452;29;20122;-60
2021/12/03 10:50:13;;;;;;;11.63;4.47;;;1.60;99.90;;;;;;4947323;29;20031;-59
2021/12/03 11:30:43;;;;;;;10.73;3.88;;;2.80;99.90;;;;;;4950060;29;20047;-60
2021/12/03 11:39:07;;;;;;;9.10;3.67;;;3.10;99.90;;;;;;4949954;29;20038;-60
2021/12/03 11:56:23;;;;;;;8.07;4.18;;;3.00;99.90;;;;;;4951720;28;20122;-60
2021/12/03 12:25:07;;;;;;;6.55;3.25;;;2.50;99.90;;;;;;4952483;29;20118;-60
2021/12/03 12:55:54;;;;;;;9.20;3.53;;;2.50;99.90;;;;;;4953632;29;20020;-60
2021/12/03 14:44:09;;;;;;;7.13;2.35;;;2.10;99.90;;;;;;4951224;29;20094;-59
2021/12/03 14:46:51;;;;;;;8.25;2.80;;;2.10;99.90;;;;;;4951096;29;20081;-59
2021/12/03 14:52:06;;;;;;;7.00;2.33;;;2.10;99.90;;;;;;4950265;29;20139;-59
2021/12/03 14:57:32;;;;;;;7.38;2.40;;;2.00;99.90;;;;;;4950342;29;20118;-59
2021/12/03 15:00:18;;;;;;;6.80;2.70;;;2.10;99.90;;;;;;4950161;29;20035;-60
2021/12/03 15:08:53;;;;;;;11.00;2.40;;;2.30;99.90;;;;;;4949284;29;20045;-60
2021/12/03 15:27:05;;;;;;;8.60;2.60;;;1.90;99.90;;;;;;4947217;29;20499;-60
2021/12/03 15:34:45;;;;;;;4.70;2.22;;;1.80;99.90;;;;;;4948641;29;20035;-59
2021/12/03 15:56:23;;;;;;;9.82;5.35;;;1.40;99.90;;;;;;4944013;29;20138;-59
2021/12/03 16:04:21;;;;;;;7.32;2.70;;;1.30;99.90;;;;;;4950333;29;20507;-60
2021/12/03 16:12:42;;;;;;;5.10;2.20;;;1.20;99.90;;;;;;4950169;29;20122;-59
2021/12/03 16:21:22;;;;;;;9.70;2.58;;;1.10;99.90;;;;;;4950461;29;20483;-59
2021/12/03 16:52:53;;;;;;;6.00;2.20;;;1.30;99.90;;;;;;4945978;29;20050;-60
2021/12/03 16:55:21;;;;;;;6.05;2.55;;;1.10;99.90;;;;;;4952311;28;20105;-59
2021/12/03 16:57:50;;;;;;;5.10;2.00;;;1.00;99.90;;;;;;4952069;29;20066;-59
2021/12/03 17:00:22;;;;;;;5.25;2.35;;;0.90;99.90;;;;;;4952246;29;20031;-59
2021/12/03 17:03:06;;;;;;;8.48;2.70;;;0.80;99.90;;;;;;4951126;29;20400;-59
2021/12/03 17:16:22;;;;;;;7.32;3.33;;;0.80;99.90;;;;;;4949880;29;20047;-59
2021/12/03 17:22:10;;;;;;;8.50;3.25;;;0.80;99.90;;;;;;4953353;29;20512;-59
2021/12/03 17:48:45;;;;;;;10.60;3.97;;;0.60;99.90;;;;;;4954139;28;20042;-60
2021/12/03 17:51:34;;;;;;;9.57;3.92;;;0.70;99.90;;;;;;4944863;29;20031;-60
2021/12/03 17:56:34;;;;;;;6.50;2.90;;;0.70;99.90;;;;;;4946210;28;20099;-59
2021/12/03 17:59:12;;;;;;;7.82;2.85;;;0.70;99.90;;;;;;4956266;28;20119;-60
2021/12/03 18:04:23;;;;;;;11.20;3.83;;;0.70;99.90;;;;;;4951895;29;20140;-59
2021/12/03 18:07:05;;;;;;;8.52;3.45;;;0.70;99.90;;;;;;4950492;29;20033;-59
2021/12/03 18:10:43;;;;;;;9.43;3.58;;;0.80;99.90;;;;;;4956143;28;20031;-59
2021/12/03 18:13:05;;;;;;;8.82;3.70;;;0.70;99.90;;;;;;4945839;29;20094;-59
2021/12/03 18:51:26;;;;;;;7.35;3.13;;;0.40;99.90;;;;;;4950728;29;20813;-59
2021/12/03 18:58:43;;;;;;;7.95;3.10;;;0.40;99.90;;;;;;4949373;28;20043;-59
2021/12/03 19:01:11;;;;;;;6.82;3.10;;;0.50;99.90;;;;;;4950211;29;20031;-58
2021/12/03 19:03:52;;;;;;;9.00;3.53;;;0.50;99.90;;;;;;4950954;29;20118;-58
2021/12/03 19:06:29;;;;;;;;;;;0.40;99.90;;;;;;4950531;29;20117;-59
2021/12/03 19:09:04;;;;;;;8.77;3.17;;;0.40;99.90;;;;;;4949375;29;20299;-59
2021/12/03 19:11:35;;;;;;;7.80;3.00;;;0.30;99.90;;;;;;4948939;29;20081;-59
2021/12/03 19:14:00;;;;;;;10.63;3.60;;;0.30;99.90;;;;;;4949560;29;20050;-59
2021/12/03 19:16:26;;;;;;;6.53;2.90;;;0.30;99.90;;;;;;4950421;29;20031;-58
2021/12/03 19:18:55;;;;;;;10.02;3.80;;;0.20;99.90;;;;;;4950261;29;20035;-59
2021/12/03 19:21:25;;;;;;;7.53;3.25;;;0.10;99.90;;;;;;4951098;29;20035;-59
2021/12/03 19:23:57;;;;;;;10.30;3.53;;;0.10;99.90;;;;;;4949241;29;20483;-59
2021/12/03 19:26:25;;;;;;;9.40;4.20;;;0.10;99.90;;;;;;4948514;29;20408;-59
2021/12/03 19:28:51;;;;;;;11.00;3.95;;;0.10;99.90;;;;;;4950139;28;20036;-59
2021/12/03 19:31:21;;;;;;;9.45;4.30;;;0.20;99.90;;;;;;4950406;28;20031;-59
2021/12/03 19:33:47;;;;;;;7.97;3.33;;;0.30;99.90;;;;;;4951453;29;20034;-59
2021/12/03 19:36:20;;;;;;;9.30;3.55;;;0.40;99.90;;;;;;4949845;28;20035;-59
2021/12/03 19:38:47;;;;;;;11.45;3.95;;;0.40;99.90;;;;;;4950329;29;20511;-59
2021/12/03 19:44:01;;;;;;;9.38;3.33;;;0.40;99.90;;;;;;4929027;29;20039;-59
2021/12/03 19:46:35;;;;;;;7.57;3.78;;;0.30;99.90;;;;;;4950131;29;20093;-59
2021/12/03 19:49:15;;;;;;;9.70;4.13;;;0.30;99.90;;;;;;4950059;29;20054;-59
2021/12/03 19:51:46;;;;;;;8.48;4.15;;;0.40;99.90;;;;;;4953346;29;20031;-59
2021/12/03 19:54:13;;;;;;;12.68;5.30;;;0.60;99.90;;;;;;4949033;29;20058;-59
2021/12/03 19:56:40;;;;;;;15.02;5.63;;;0.50;99.90;;;;;;4950417;28;20070;-59
2021/12/03 19:59:06;;;;;;;13.57;5.50;;;0.50;99.90;;;;;;4949188;28;20532;-59
2021/12/03 20:01:34;;;;;;;16.90;5.75;;;0.40;99.90;;;;;;4950719;29;20402;-59
2021/12/03 20:04:01;;;;;;;12.27;4.60;;;0.40;99.90;;;;;;4948999;29;20042;-59
2021/12/03 20:06:28;;;;;;;8.82;4.07;;;0.50;99.90;;;;;;4949548;29;20035;-59
2021/12/03 20:08:56;;;;;;;10.52;4.13;;;0.60;99.90;;;;;;4951255;28;20110;-59
2021/12/03 20:11:28;;;;;;;11.93;4.68;;;0.70;99.90;;;;;;4953851;29;20027;-59
2021/12/03 20:14:00;;;;;;;13.10;4.22;;;0.60;99.90;;;;;;4953897;29;20043;-59
2021/12/03 20:22:01;;;;;;;9.93;4.20;;;0.80;99.90;;;;;;4953497;29;20388;-59
2021/12/03 20:29:26;;;;;;;11.15;4.55;;;0.70;99.90;;;;;;4953494;29;20053;-59
2021/12/03 20:34:58;;;;;;;10.13;4.32;;;0.70;99.90;;;;;;4950819;29;20062;-59
2021/12/03 20:37:29;;;;;;;12.77;4.78;;;0.70;99.90;;;;;;4952296;29;20030;-59
2021/12/03 20:39:57;;;;;;;16.27;5.80;;;0.90;99.90;;;;;;4935199;29;20031;-59